LIBR Airport Information

Runway Information
Runway 05 Length 6132 ft width 148 ft
Elevation 46 ft Threshold 0 ft Heading 53
Runway 23 Length 6132 ft Width 148 ft
Elevation 13 ft Threshold 230 ft Heading 233
Runway 13 Length 8307 ft width 148 ft
Elevation 29 ft Threshold 0 ft Heading 137
Runway 31 Length 8307 ft Width 148 ft
Elevation 26 ft Threshold 0 ft Heading 317
Airport Frequencies
Type APP Name BRINDISI A Frequency 36.365 MHZ
Type APP Name BRINDISI A Frequency 118.4 MHZ
Type GND Name GND Frequency 31.355 MHZ
Type ILS RWY 32 Name Frequency 109.5 MHZ
Type TWR Name BRINDISI T Frequency 118.1 MHZ
Airport Navaids
Type VORTAC Name Brindisi Frequency 113200 KHZ
Type NDB Name Brindisi Frequency 364 KHZ
Airport Weather Information & NOTAM
ADDS - METARS form results

(1008 UTC 22 February 2019)
Data provider http://aviationweather.gov/metar/data/
 
METAR text: LIBR 220950Z 29014KT 6000 NSC 12/07 Q1020
Conditions at: LIBR (BRINDISI/CASALE , IT) observed 0950 UTC 22 February 2019
Temperature: 12.0°C (54°F)
Dewpoint: 7.0°C (45°F) [RH = 71%]
Pressure (altimeter): 30.12 inches Hg (1020.0 mb)
Winds: from the WNW (290 degrees) at 16 MPH (14 knots; 7.2 m/s)
Visibility: 4 miles ( 6 km)
Ceiling: at least 12,000 feet AGL
Clouds: sky clear below 12,000 feet AGL
Weather: no significant weather observed at this time

METAR text: LIBR 220920Z 29013KT 6000 NSC 12/07 Q1021
Conditions at: LIBR (BRINDISI/CASALE , IT) observed 0920 UTC 22 February 2019
Temperature: 12.0°C (54°F)
Dewpoint: 7.0°C (45°F) [RH = 71%]
Pressure (altimeter): 30.15 inches Hg (1021.0 mb)
Winds: from the WNW (290 degrees) at 15 MPH (13 knots; 6.7 m/s)
Visibility: 4 miles ( 6 km)
Ceiling: at least 12,000 feet AGL
Clouds: sky clear below 12,000 feet AGL
Weather: no significant weather observed at this time

Forecast for: LIBR (BRINDISI/CASALE , IT)
Text: TAF LIBR 220500Z 2206/2306 32015KT 8000 SCT040
Forecast period: 0600 UTC 22 February 2019 to 0600 UTC 23 February 2019
Forecast type: FROM: standard forecast or significant change
Winds: from the NW (320 degrees) at 17 MPH (15 knots; 7.7 m/s)
Visibility: 5 miles (8 km)
Ceiling: at least 12,000 feet AGL
Clouds: scattered clouds at 4000 feet AGL
Weather: no significant weather forecast for this period
Text: TEMPO 2214/2220 RA
Forecast period: 1400 to 2000 UTC 22 February 2019
Forecast type: TEMPORARY: The following changes expected for less than half the time period
Visibility: missing
Ceiling: unknown
Clouds: missing
Weather: RA  (moderate rain)